Time;durP1;ratioP1;P1;durP2;ratioP2;P2;SDS_P1;SDS_P2;PMS_P1;PMS_P2;Temp;Humidity;BMP_temperature;BMP_pressure;BME280_temperature;BME280_humidity;BME280_pressure;Samples;Min_cycle;Max_cycle;Signal;HPM_P1;HPM_P2
2022/05/15 00:02:41;;;;;;;12.48;3.35;;;14.10;89.50;;;;;;5034208;28;20033;-86
2022/05/15 00:05:07;;;;;;;13.82;3.53;;;14.10;89.70;;;;;;5035569;28;20482;-85
2022/05/15 00:07:35;;;;;;;14.05;3.95;;;14.00;89.80;;;;;;5036027;28;20071;-85
2022/05/15 00:10:03;;;;;;;16.17;3.83;;;14.00;90.00;;;;;;5034891;28;20041;-85
2022/05/15 00:12:29;;;;;;;13.32;3.30;;;14.00;90.20;;;;;;5035019;28;20441;-83
2022/05/15 00:14:55;;;;;;;8.13;2.83;;;13.90;90.30;;;;;;5033911;28;20148;-84
2022/05/15 00:17:20;;;;;;;12.18;2.88;;;13.90;90.20;;;;;;5033761;28;20025;-83
2022/05/15 00:19:46;;;;;;;13.23;3.75;;;13.90;90.30;;;;;;5035326;28;20065;-83
2022/05/15 00:22:13;;;;;;;11.75;3.42;;;13.80;90.30;;;;;;5034595;28;20029;-84
2022/05/15 00:24:40;;;;;;;14.20;3.15;;;13.80;90.40;;;;;;5034633;28;20053;-84
2022/05/15 00:27:06;;;;;;;10.43;3.28;;;13.90;90.30;;;;;;5033740;28;20084;-82
2022/05/15 00:29:32;;;;;;;14.05;3.40;;;13.80;90.40;;;;;;5034657;28;20033;-82
2022/05/15 00:32:01;;;;;;;9.65;3.22;;;13.70;90.30;;;;;;5034958;28;20017;-82
2022/05/15 00:34:26;;;;;;;9.98;3.15;;;13.70;90.40;;;;;;5033587;28;20091;-83
2022/05/15 00:36:52;;;;;;;15.13;3.33;;;13.70;90.50;;;;;;5033319;28;20063;-83
2022/05/15 00:39:17;;;;;;;12.80;3.50;;;13.50;90.70;;;;;;5033218;28;20426;-85
2022/05/15 00:41:44;;;;;;;12.25;3.55;;;13.50;90.90;;;;;;5034535;28;20065;-83
2022/05/15 00:44:10;;;;;;;9.52;3.40;;;13.40;91.10;;;;;;5033479;28;20078;-85
2022/05/15 00:46:41;;;;;;;17.65;3.58;;;13.40;91.10;;;;;;5034776;28;20096;-85
2022/05/15 00:49:10;;;;;;;10.63;3.67;;;13.40;91.30;;;;;;5034685;28;20107;-84
2022/05/15 00:51:49;;;;;;;10.00;3.40;;;13.40;91.20;;;;;;5036034;28;20065;-84
2022/05/15 00:54:52;;;;;;;10.05;3.00;;;13.30;91.20;;;;;;5034336;28;20025;-84
2022/05/15 00:57:26;;;;;;;11.35;2.97;;;13.30;91.20;;;;;;5026510;28;20110;-83
2022/05/15 01:00:01;;;;;;;10.43;3.15;;;13.20;91.30;;;;;;5033227;28;20053;-84
2022/05/15 01:02:32;;;;;;;13.55;3.50;;;13.10;91.40;;;;;;5034074;28;20407;-82
2022/05/15 01:04:59;;;;;;;12.68;3.65;;;13.10;91.50;;;;;;5034409;28;20022;-84
2022/05/15 01:07:24;;;;;;;14.23;3.35;;;13.00;91.50;;;;;;5033892;28;20463;-84
2022/05/15 01:09:53;;;;;;;13.27;3.10;;;13.00;91.70;;;;;;5032323;28;20037;-84
2022/05/15 01:12:19;;;;;;;10.63;2.83;;;13.00;91.70;;;;;;5034014;28;20041;-83
2022/05/15 01:14:46;;;;;;;8.77;3.20;;;13.00;91.60;;;;;;5041611;28;20123;-86
2022/05/15 01:17:13;;;;;;;13.15;3.00;;;13.00;91.60;;;;;;5056334;28;20039;-85
2022/05/15 01:19:41;;;;;;;11.13;3.55;;;13.00;91.60;;;;;;5055149;28;20029;-86
2022/05/15 01:22:09;;;;;;;8.57;2.80;;;12.90;91.70;;;;;;5028476;28;20348;-85
2022/05/15 01:24:43;;;;;;;15.57;3.70;;;12.90;91.70;;;;;;5037262;28;20097;-86
2022/05/15 01:27:13;;;;;;;11.43;3.58;;;12.90;91.80;;;;;;5054653;28;20025;-81
2022/05/15 01:29:44;;;;;;;11.15;3.15;;;12.80;91.90;;;;;;5054600;28;20116;-85
2022/05/15 01:32:11;;;;;;;9.00;2.78;;;12.80;92.00;;;;;;5054303;28;20068;-83
2022/05/15 01:34:37;;;;;;;10.73;3.13;;;12.80;92.00;;;;;;5053804;28;20021;-83
2022/05/15 01:37:03;;;;;;;11.07;3.03;;;12.70;92.00;;;;;;5072756;28;20040;-84
2022/05/15 01:39:30;;;;;;;14.77;3.72;;;12.70;92.10;;;;;;5073951;28;20068;-83
2022/05/15 01:41:56;;;;;;;13.90;3.33;;;12.70;92.10;;;;;;5074500;28;20039;-84
2022/05/15 01:44:22;;;;;;;13.15;3.22;;;12.80;92.20;;;;;;5079114;28;20032;-86
2022/05/15 01:46:48;;;;;;;11.35;3.30;;;12.70;92.20;;;;;;5080392;28;20331;-85
2022/05/15 01:49:15;;;;;;;9.57;3.60;;;12.70;92.10;;;;;;5062351;28;20028;-84
2022/05/15 01:51:42;;;;;;;9.63;3.13;;;12.70;92.20;;;;;;5078694;28;20028;-85
2022/05/15 01:54:08;;;;;;;11.77;3.30;;;12.60;92.10;;;;;;5060216;28;20037;-85
2022/05/15 01:56:35;;;;;;;10.48;3.38;;;12.60;92.20;;;;;;5074474;28;20029;-85
2022/05/15 01:59:02;;;;;;;11.73;3.40;;;12.60;92.30;;;;;;5056854;28;20021;-84
2022/05/15 02:01:27;;;;;;;9.48;3.30;;;12.50;92.30;;;;;;5073152;28;20040;-84
2022/05/15 02:03:53;;;;;;;11.57;3.40;;;12.50;92.40;;;;;;5055132;28;20363;-86
2022/05/15 02:06:19;;;;;;;12.88;4.45;;;12.50;92.50;;;;;;5073602;28;20024;-87
2022/05/15 02:08:44;;;;;;;10.18;3.17;;;12.50;92.50;;;;;;5074479;28;20028;-87
2022/05/15 02:11:10;;;;;;;12.88;3.47;;;12.40;92.60;;;;;;5056743;28;20028;-87
2022/05/15 02:13:36;;;;;;;9.80;2.95;;;12.50;92.60;;;;;;5057084;28;20526;-88
2022/05/15 02:16:05;;;;;;;10.88;3.10;;;12.40;92.40;;;;;;5055834;28;20227;-87
2022/05/15 02:18:34;;;;;;;9.93;3.40;;;12.40;92.60;;;;;;5072938;28;20089;-85
2022/05/15 02:20:59;;;;;;;14.35;3.75;;;12.30;92.70;;;;;;5055143;28;20517;-86
2022/05/15 02:23:26;;;;;;;22.60;5.18;;;12.30;92.80;;;;;;5074096;28;20040;-87
2022/05/15 02:25:52;;;;;;;21.85;4.65;;;12.30;92.70;;;;;;5074532;28;20020;-88
2022/05/15 02:28:18;;;;;;;11.50;3.60;;;12.30;92.70;;;;;;5056057;28;20032;-87
2022/05/15 02:30:44;;;;;;;15.18;3.83;;;12.30;92.80;;;;;;5073893;28;20454;-88
2022/05/15 02:33:09;;;;;;;7.93;3.22;;;12.30;92.80;;;;;;5056238;28;20040;-87
2022/05/15 02:35:35;;;;;;;8.07;3.00;;;12.20;92.70;;;;;;5073646;28;20386;-88
2022/05/15 02:38:00;;;;;;;13.32;3.58;;;12.20;92.80;;;;;;5056318;28;20024;-88
2022/05/15 02:40:28;;;;;;;11.45;3.25;;;12.20;92.80;;;;;;5055729;28;20045;-87
2022/05/15 02:42:56;;;;;;;12.18;3.78;;;12.20;92.80;;;;;;5073169;28;20108;-85
2022/05/15 02:45:24;;;;;;;8.63;3.47;;;12.20;92.80;;;;;;5055443;28;20032;-85
2022/05/15 02:47:51;;;;;;;9.93;3.28;;;12.10;92.70;;;;;;5073325;28;20115;-86
2022/05/15 02:53:02;;;;;;;10.23;3.85;;;12.10;92.70;;;;;;5073348;28;20074;-86
2022/05/15 02:55:27;;;;;;;14.52;3.28;;;12.10;92.80;;;;;;5056215;28;20036;-88
2022/05/15 02:57:54;;;;;;;10.50;3.50;;;12.10;92.90;;;;;;5073434;28;20028;-88
2022/05/15 03:00:22;;;;;;;18.05;3.75;;;12.10;92.80;;;;;;5073045;28;20078;-88
2022/05/15 03:02:48;;;;;;;10.15;3.40;;;12.10;93.00;;;;;;5055087;28;20123;-88
2022/05/15 03:05:15;;;;;;;10.23;3.38;;;12.00;93.10;;;;;;5072954;28;20067;-87
2022/05/15 03:07:42;;;;;;;17.20;3.63;;;12.00;93.10;;;;;;5073361;28;20470;-89
2022/05/15 03:10:11;;;;;;;14.15;3.25;;;12.10;93.10;;;;;;5056274;28;20517;-90
2022/05/15 03:12:37;;;;;;;10.25;3.38;;;12.00;93.10;;;;;;5056486;28;20111;-89
2022/05/15 03:15:05;;;;;;;9.60;3.38;;;11.90;93.10;;;;;;5073358;28;20072;-90
2022/05/15 03:17:31;;;;;;;10.55;3.13;;;11.90;93.30;;;;;;5074033;28;20029;-88
2022/05/15 03:19:58;;;;;;;10.18;4.05;;;11.80;93.40;;;;;;5055894;28;20020;-86
2022/05/15 03:22:24;;;;;;;16.15;3.70;;;11.90;93.40;;;;;;5055023;28;20509;-87
2022/05/15 03:24:49;;;;;;;11.77;3.63;;;11.80;93.30;;;;;;5055127;28;20036;-88
2022/05/15 03:27:16;;;;;;;11.32;3.40;;;11.80;93.40;;;;;;5055101;28;20028;-87
2022/05/15 03:29:42;;;;;;;9.75;3.05;;;11.80;93.50;;;;;;5054903;28;20028;-84
2022/05/15 03:32:08;;;;;;;11.38;3.50;;;11.70;93.40;;;;;;5072926;28;20116;-88
2022/05/15 03:34:41;;;;;;;11.75;3.30;;;11.80;93.40;;;;;;5056402;28;20035;-88
2022/05/15 03:37:06;;;;;;;12.98;3.78;;;11.70;93.30;;;;;;5055341;28;20512;-87
2022/05/15 03:39:32;;;;;;;9.30;3.45;;;11.70;93.30;;;;;;5072712;28;20055;-86
2022/05/15 03:41:58;;;;;;;12.63;3.78;;;11.70;93.30;;;;;;5073163;28;20214;-88
2022/05/15 03:44:23;;;;;;;9.75;3.17;;;11.70;93.50;;;;;;5072613;28;20040;-89
2022/05/15 03:46:49;;;;;;;14.63;3.92;;;11.60;93.50;;;;;;5072864;28;20035;-89
2022/05/15 03:49:15;;;;;;;15.80;3.97;;;11.70;93.60;;;;;;5073200;28;20032;-88
2022/05/15 03:51:42;;;;;;;9.02;4.00;;;11.60;93.60;;;;;;5073257;28;20036;-88
2022/05/15 03:54:08;;;;;;;11.50;3.75;;;11.60;93.60;;;;;;5054856;28;20060;-87
2022/05/15 03:56:52;;;;;;;15.35;4.22;;;11.60;93.70;;;;;;5072896;28;20063;-87
2022/05/15 03:59:31;;;;;;;11.50;3.45;;;11.60;93.70;;;;;;5055306;28;20115;-88
2022/05/15 04:02:05;;;;;;;13.10;3.65;;;11.60;93.70;;;;;;5056453;28;20028;-88
2022/05/15 04:04:39;;;;;;;12.02;3.70;;;11.60;93.60;;;;;;5073420;28;20033;-87
2022/05/15 04:07:05;;;;;;;7.53;3.22;;;11.60;93.70;;;;;;5055410;28;20036;-88
2022/05/15 04:09:32;;;;;;;14.98;4.28;;;11.70;93.70;;;;;;5055532;28;20056;-88
2022/05/15 04:11:58;;;;;;;12.98;3.70;;;11.70;93.60;;;;;;5055519;28;20036;-90
2022/05/15 04:14:23;;;;;;;17.15;4.20;;;11.60;93.80;;;;;;5055440;28;20036;-90
2022/05/15 04:16:49;;;;;;;11.57;3.70;;;11.60;93.80;;;;;;5074654;28;20388;-90
2022/05/15 04:19:16;;;;;;;9.27;4.18;;;11.60;93.90;;;;;;5055810;28;20450;-90
2022/05/15 04:21:41;;;;;;;12.07;3.70;;;11.60;93.80;;;;;;5073652;28;20033;-90
2022/05/15 04:24:10;;;;;;;9.38;3.30;;;11.60;93.90;;;;;;5073578;28;20043;-90
2022/05/15 04:26:36;;;;;;;13.65;3.92;;;11.70;94.00;;;;;;5073374;28;20025;-89
2022/05/15 04:29:03;;;;;;;11.32;4.25;;;11.70;93.90;;;;;;5054961;28;20029;-87
2022/05/15 04:31:29;;;;;;;11.95;3.35;;;11.70;94.00;;;;;;5055451;28;20506;-89
2022/05/15 04:33:54;;;;;;;10.32;3.45;;;11.80;94.00;;;;;;5055236;28;20043;-89
2022/05/15 04:36:21;;;;;;;8.90;3.35;;;11.80;94.00;;;;;;5073137;28;20088;-90
2022/05/15 04:38:47;;;;;;;15.83;4.17;;;11.70;94.10;;;;;;5054874;28;20043;-88
2022/05/15 04:41:12;;;;;;;18.15;4.13;;;11.80;94.10;;;;;;5071161;28;20567;-85
2022/05/15 04:43:39;;;;;;;11.98;3.38;;;11.90;94.10;;;;;;5072403;28;20077;-88
2022/05/15 04:46:07;;;;;;;18.80;3.85;;;12.00;94.00;;;;;;5059411;28;20031;-87
2022/05/15 04:48:34;;;;;;;11.10;4.18;;;11.90;94.10;;;;;;5058810;28;20082;-85
2022/05/15 04:51:00;;;;;;;11.07;4.35;;;12.00;94.20;;;;;;5076139;28;20028;-88
2022/05/15 04:53:27;;;;;;;15.15;4.28;;;12.00;94.10;;;;;;5078396;28;20020;-88
2022/05/15 04:55:53;;;;;;;10.13;3.65;;;12.00;94.20;;;;;;5060036;28;20032;-87
2022/05/15 04:58:18;;;;;;;12.30;3.40;;;12.10;94.20;;;;;;5078958;28;20043;-87
2022/05/15 05:00:44;;;;;;;17.55;4.10;;;12.10;94.30;;;;;;5075886;28;20032;-83
2022/05/15 05:03:10;;;;;;;9.13;3.88;;;12.20;94.30;;;;;;5074890;28;20094;-90
2022/05/15 05:05:35;;;;;;;12.13;3.20;;;12.20;94.20;;;;;;5058511;28;20038;-88
2022/05/15 05:08:01;;;;;;;14.70;3.95;;;12.30;94.30;;;;;;5058824;28;20234;-87
2022/05/15 05:10:29;;;;;;;9.45;3.70;;;12.30;94.30;;;;;;5057853;28;20029;-90
2022/05/15 05:12:54;;;;;;;16.25;3.67;;;12.30;94.40;;;;;;5058861;28;20465;-89
2022/05/15 05:15:20;;;;;;;12.85;3.42;;;12.30;94.50;;;;;;5057960;28;20137;-85
2022/05/15 05:17:45;;;;;;;14.30;3.40;;;12.30;94.50;;;;;;5058909;28;20033;-89
2022/05/15 05:20:13;;;;;;;9.20;3.78;;;12.40;94.60;;;;;;5057895;28;20389;-89
2022/05/15 05:22:39;;;;;;;13.00;3.80;;;12.60;94.50;;;;;;5075955;28;20036;-90
2022/05/15 05:25:08;;;;;;;10.63;3.80;;;12.60;94.50;;;;;;5075015;28;20024;-92
2022/05/15 05:27:40;;;;;;;12.30;3.15;;;12.70;94.50;;;;;;5058338;28;20077;-92
2022/05/15 05:30:09;;;;;;;11.02;3.65;;;12.70;94.60;;;;;;5076264;28;20028;-91
2022/05/15 05:32:34;;;;;;;14.85;3.92;;;12.80;94.50;;;;;;5075401;28;20024;-89
2022/05/15 05:35:00;;;;;;;8.18;3.28;;;12.80;94.50;;;;;;5058764;28;20104;-92
2022/05/15 05:37:53;;;;;;;12.82;3.88;;;12.90;94.50;;;;;;5077335;28;20050;-90
2022/05/15 05:40:21;;;;;;;15.27;3.80;;;13.00;94.60;;;;;;5072413;28;20029;-89
2022/05/15 05:42:47;;;;;;;11.05;3.78;;;13.10;94.60;;;;;;5074359;28;20032;-83
2022/05/15 05:45:13;;;;;;;13.75;4.05;;;13.20;94.30;;;;;;5074531;28;20094;-87
2022/05/15 05:47:58;;;;;;;14.35;3.40;;;13.30;93.80;;;;;;5057185;28;20028;-89
2022/05/15 05:50:27;;;;;;;13.65;3.47;;;13.50;93.70;;;;;;5056513;28;20470;-87
2022/05/15 05:52:54;;;;;;;17.55;3.20;;;13.80;93.80;;;;;;5075271;28;20040;-89
2022/05/15 05:55:22;;;;;;;9.50;2.80;;;14.20;93.50;;;;;;5057244;28;20029;-86
2022/05/15 05:57:48;;;;;;;8.93;3.13;;;14.70;92.00;;;;;;5057209;28;20032;-87
2022/05/15 06:00:21;;;;;;;12.13;3.45;;;15.30;91.60;;;;;;5057117;28;20572;-88
2022/05/15 06:02:47;;;;;;;11.85;3.65;;;15.80;90.40;;;;;;5057150;28;20032;-88
2022/05/15 06:05:13;;;;;;;15.00;3.25;;;16.10;89.60;;;;;;5073554;28;20032;-86
2022/05/15 06:07:39;;;;;;;9.75;2.80;;;16.20;88.00;;;;;;5056148;28;20032;-84
2022/05/15 06:10:12;;;;;;;15.13;3.78;;;16.50;87.20;;;;;;5055172;28;20037;-85
2022/05/15 06:12:41;;;;;;;15.73;3.30;;;17.00;85.40;;;;;;5072744;28;20094;-81
2022/05/15 06:15:09;;;;;;;7.88;2.72;;;17.10;84.70;;;;;;5072058;28;20059;-80
2022/05/15 06:17:34;;;;;;;12.52;3.00;;;17.20;84.80;;;;;;5073408;28;20037;-86
2022/05/15 06:20:05;;;;;;;10.68;3.03;;;17.60;85.00;;;;;;5073087;28;20033;-83
2022/05/15 06:22:33;;;;;;;17.60;3.40;;;17.90;83.50;;;;;;5055348;28;20055;-89
2022/05/15 06:25:00;;;;;;;10.05;3.03;;;18.30;82.90;;;;;;5073281;28;20025;-85
2022/05/15 06:27:26;;;;;;;13.07;3.40;;;18.60;80.00;;;;;;5073620;28;20409;-85
2022/05/15 06:29:55;;;;;;;11.38;3.30;;;18.80;79.50;;;;;;5073437;28;20044;-88
2022/05/15 06:32:20;;;;;;;13.23;3.25;;;18.60;78.70;;;;;;5057372;28;20016;-84
2022/05/15 06:34:46;;;;;;;15.85;3.75;;;18.30;78.80;;;;;;5053215;28;20029;-84
2022/05/15 06:37:14;;;;;;;19.73;7.20;;;18.10;78.50;;;;;;5056037;28;20071;-87
2022/05/15 06:39:39;;;;;;;15.27;4.70;;;18.00;77.80;;;;;;5074045;28;20031;-85
2022/05/15 06:42:07;;;;;;;8.90;3.35;;;18.10;77.70;;;;;;5074130;28;20295;-89
2022/05/15 06:44:33;;;;;;;12.27;3.70;;;18.20;76.60;;;;;;5074095;28;20533;-89
2022/05/15 06:47:02;;;;;;;15.80;3.30;;;18.20;76.70;;;;;;5074028;28;20269;-84
2022/05/15 06:49:27;;;;;;;10.32;3.17;;;18.10;76.50;;;;;;5074761;28;20040;-88
2022/05/15 06:51:53;;;;;;;11.15;2.63;;;18.10;76.30;;;;;;5056533;28;20085;-87
2022/05/15 06:54:19;;;;;;;11.95;3.35;;;18.00;76.70;;;;;;5056560;28;20029;-85
2022/05/15 06:59:29;;;;;;;10.73;3.13;;;17.80;77.10;;;;;;5073102;28;20035;-84
2022/05/15 07:01:55;;;;;;;15.60;3.03;;;18.00;77.00;;;;;;5055277;28;20028;-81
2022/05/15 07:04:20;;;;;;;8.85;2.97;;;18.10;76.40;;;;;;5072447;28;20063;-83
2022/05/15 07:06:46;;;;;;;12.00;3.80;;;18.20;75.80;;;;;;5054089;28;20047;-82
2022/05/15 07:09:11;;;;;;;15.25;3.30;;;18.30;76.00;;;;;;5072659;28;20032;-79
2022/05/15 07:11:37;;;;;;;11.88;3.53;;;18.30;76.80;;;;;;5074018;28;20414;-88
2022/05/15 07:14:03;;;;;;;16.10;3.80;;;18.40;76.70;;;;;;5056548;28;20028;-87
2022/05/15 07:16:29;;;;;;;16.38;3.88;;;18.50;76.80;;;;;;5050474;28;20033;-86
2022/05/15 07:18:54;;;;;;;11.38;3.92;;;18.70;76.20;;;;;;5053895;28;20138;-88
2022/05/15 07:21:20;;;;;;;16.80;3.70;;;18.70;76.20;;;;;;5055035;28;20086;-91
2022/05/15 07:23:46;;;;;;;11.63;3.80;;;18.80;75.60;;;;;;5035217;28;20519;-88
2022/05/15 07:26:11;;;;;;;12.50;3.75;;;18.80;75.10;;;;;;5033205;28;20018;-77
2022/05/15 07:28:37;;;;;;;14.13;3.03;;;18.90;74.70;;;;;;5031915;28;20029;-79
2022/05/15 07:31:05;;;;;;;12.15;3.63;;;18.90;74.90;;;;;;5032244;28;20025;-80
2022/05/15 07:33:31;;;;;;;13.93;3.42;;;18.80;74.20;;;;;;5031956;28;20455;-82
2022/05/15 07:35:57;;;;;;;11.95;2.97;;;18.70;75.40;;;;;;5031434;28;20037;-84
2022/05/15 07:38:23;;;;;;;11.02;2.83;;;19.00;74.80;;;;;;5031212;28;20463;-87
2022/05/15 07:40:50;;;;;;;11.82;3.35;;;19.10;73.50;;;;;;5033723;28;20749;-87
2022/05/15 07:43:16;;;;;;;13.35;3.63;;;19.00;74.30;;;;;;5033464;28;20032;-87
2022/05/15 07:45:42;;;;;;;18.35;4.10;;;19.10;74.20;;;;;;5033701;28;20446;-86
2022/05/15 07:48:08;;;;;;;14.82;3.50;;;19.40;74.00;;;;;;5033816;28;20056;-85
2022/05/15 07:50:35;;;;;;;19.33;4.68;;;19.30;73.50;;;;;;5033765;28;20116;-86
2022/05/15 07:53:08;;;;;;;18.80;3.90;;;19.40;73.20;;;;;;5033444;28;20033;-90
2022/05/15 07:55:37;;;;;;;13.07;3.58;;;19.60;72.00;;;;;;5034388;28;20037;-94
2022/05/15 07:58:02;;;;;;;15.32;3.60;;;19.80;72.50;;;;;;5034351;28;20030;-89
2022/05/15 08:00:30;;;;;;;14.80;3.63;;;20.40;71.50;;;;;;5033543;28;20455;-88
2022/05/15 08:03:09;;;;;;;15.18;4.47;;;20.80;70.60;;;;;;5033254;28;20336;-83
2022/05/15 08:08:22;;;;;;;16.00;4.32;;;20.90;70.40;;;;;;5034114;28;20037;-89
2022/05/15 08:10:49;;;;;;;13.18;3.83;;;21.00;69.30;;;;;;5032993;28;20037;-84
2022/05/15 08:13:18;;;;;;;17.00;3.42;;;21.20;71.30;;;;;;5034842;28;20308;-84
2022/05/15 08:15:44;;;;;;;9.57;3.28;;;22.50;68.40;;;;;;5034688;28;20045;-83
2022/05/15 08:23:53;;;;;;;15.30;3.30;;;25.20;62.80;;;;;;5057389;28;20633;-89
2022/05/15 08:26:19;;;;;;;15.33;3.80;;;26.50;59.10;;;;;;5037510;28;20041;-76
2022/05/15 08:28:46;;;;;;;13.38;3.55;;;27.50;56.70;;;;;;5055270;28;20033;-77
2022/05/15 08:31:12;;;;;;;14.60;3.30;;;28.50;55.40;;;;;;5055483;28;20102;-80
2022/05/15 08:33:39;;;;;;;13.88;3.72;;;29.10;52.90;;;;;;5059074;28;20119;-80
2022/05/15 08:36:06;;;;;;;8.18;2.88;;;29.90;51.30;;;;;;5064140;28;20458;-79
2022/05/15 08:38:32;;;;;;;13.70;3.60;;;30.70;50.40;;;;;;5045826;28;20029;-91
2022/05/15 08:41:16;;;;;;;11.13;3.55;;;30.90;49.50;;;;;;5071329;28;20040;-85
2022/05/15 08:43:55;;;;;;;16.17;4.28;;;31.40;48.20;;;;;;5037635;28;20032;-80
2022/05/15 08:46:43;;;;;;;16.25;3.42;;;31.70;45.80;;;;;;5065714;28;20017;-80
2022/05/15 08:49:30;;;;;;;14.77;4.35;;;32.00;46.20;;;;;;5072771;28;20028;-86
2022/05/15 08:52:18;;;;;;;15.07;4.07;;;32.10;42.80;;;;;;5058000;28;20041;-87
2022/05/15 08:54:49;;;;;;;10.10;2.80;;;32.10;42.90;;;;;;5066453;28;20071;-94
2022/05/15 08:57:25;;;;;;;15.93;3.55;;;33.10;41.40;;;;;;5060969;28;20032;-88
2022/05/15 08:59:57;;;;;;;14.10;3.83;;;33.60;40.80;;;;;;5057791;28;20021;-82
2022/05/15 09:02:23;;;;;;;9.57;3.33;;;33.10;40.80;;;;;;5039338;28;20036;-89
2022/05/15 09:04:53;;;;;;;12.05;3.78;;;32.80;41.40;;;;;;5039767;28;20461;-84
2022/05/15 09:07:49;;;;;;;12.45;3.35;;;32.10;40.30;;;;;;5039638;28;20120;-86
2022/05/15 09:10:31;;;;;;;11.48;3.58;;;32.50;41.50;;;;;;5038660;28;20207;-84
2022/05/15 09:13:09;;;;;;;12.82;4.00;;;33.20;40.50;;;;;;5058223;28;20098;-91
2022/05/15 09:15:39;;;;;;;13.73;3.45;;;33.20;39.70;;;;;;5057625;28;20029;-88
2022/05/15 09:18:16;;;;;;;13.05;3.45;;;32.50;39.50;;;;;;5056478;28;20056;-84
2022/05/15 09:21:09;;;;;;;18.10;3.78;;;32.00;40.30;;;;;;5039044;28;20025;-85
2022/05/15 09:23:39;;;;;;;15.82;3.90;;;31.00;40.20;;;;;;5047295;28;20462;-84
2022/05/15 09:26:14;;;;;;;12.48;4.25;;;32.40;40.20;;;;;;5055160;28;20033;-85
2022/05/15 09:28:52;;;;;;;15.70;4.63;;;33.00;39.00;;;;;;5037342;28;20123;-86
2022/05/15 09:31:42;;;;;;;15.00;3.90;;;33.10;38.80;;;;;;5036535;28;20048;-83
2022/05/15 09:34:31;;;;;;;15.73;3.97;;;32.50;39.10;;;;;;5036596;28;20087;-79
2022/05/15 09:39:50;;;;;;;21.13;5.15;;;31.10;39.60;;;;;;5055002;28;20371;-90
2022/05/15 09:45:07;;;;;;;15.70;4.30;;;31.00;40.50;;;;;;5054971;28;20107;-86
2022/05/15 09:47:43;;;;;;;16.20;4.00;;;31.70;39.80;;;;;;5054052;28;20450;-81
2022/05/15 09:50:30;;;;;;;16.92;4.10;;;30.90;39.00;;;;;;5053376;28;20029;-82
2022/05/15 09:52:56;;;;;;;10.35;3.58;;;30.50;40.30;;;;;;5016326;28;20519;-84
2022/05/15 09:55:25;;;;;;;11.60;3.35;;;30.60;41.00;;;;;;5014044;28;20048;-85
2022/05/15 09:57:56;;;;;;;16.80;3.45;;;29.70;40.40;;;;;;5026720;28;20097;-85
2022/05/15 10:00:23;;;;;;;16.65;3.75;;;29.20;42.00;;;;;;4999597;28;20088;-81
2022/05/15 10:02:52;;;;;;;14.00;3.80;;;28.40;41.90;;;;;;5018250;28;20060;-85
2022/05/15 10:05:23;;;;;;;13.38;3.53;;;28.10;43.40;;;;;;5014244;28;20037;-83
2022/05/15 10:08:10;;;;;;;11.05;3.20;;;28.20;43.60;;;;;;5014321;28;20125;-83
2022/05/15 10:10:48;;;;;;;13.73;3.78;;;28.10;43.10;;;;;;5029373;28;20102;-84
2022/05/15 10:13:33;;;;;;;18.92;3.72;;;27.90;43.20;;;;;;5013167;28;20026;-83
2022/05/15 10:16:13;;;;;;;15.20;2.97;;;27.80;43.10;;;;;;5014402;28;20436;-91
2022/05/15 10:18:58;;;;;;;15.52;3.53;;;27.80;42.50;;;;;;5013571;28;20038;-89
2022/05/15 10:21:43;;;;;;;16.67;3.60;;;27.50;43.30;;;;;;5014489;28;20041;-93
2022/05/15 10:24:23;;;;;;;10.93;3.15;;;27.30;43.30;;;;;;5012082;28;20037;-84
2022/05/15 10:27:02;;;;;;;17.42;3.97;;;26.80;44.60;;;;;;5014324;28;20506;-85
2022/05/15 10:29:39;;;;;;;12.38;3.15;;;26.60;44.10;;;;;;5012728;28;20034;-83
2022/05/15 10:32:13;;;;;;;16.10;3.28;;;26.60;45.00;;;;;;5012987;28;20030;-80
2022/05/15 10:34:40;;;;;;;11.60;3.42;;;26.70;44.00;;;;;;5012992;28;20045;-82
2022/05/15 10:37:31;;;;;;;11.95;2.97;;;26.40;44.40;;;;;;5013020;28;20108;-80
2022/05/15 10:40:14;;;;;;;14.80;3.60;;;26.50;43.90;;;;;;5012613;28;20045;-81
2022/05/15 10:43:07;;;;;;;12.27;2.95;;;26.30;43.40;;;;;;5011782;28;20029;-78
2022/05/15 10:45:52;;;;;;;14.82;3.97;;;26.00;44.00;;;;;;5013530;28;20045;-79
2022/05/15 10:48:45;;;;;;;13.65;3.28;;;26.20;45.00;;;;;;5013004;28;20065;-77
2022/05/15 10:51:35;;;;;;;10.82;3.08;;;26.40;43.60;;;;;;5012777;28;20042;-80
2022/05/15 10:57:27;;;;;;;10.70;3.15;;;25.70;44.60;;;;;;5012615;28;20053;-81
2022/05/15 11:00:06;;;;;;;13.45;3.42;;;25.70;45.50;;;;;;5012503;28;20029;-75
2022/05/15 11:02:45;;;;;;;11.43;3.17;;;25.80;46.30;;;;;;5012039;28;20038;-76
2022/05/15 11:05:16;;;;;;;13.70;2.97;;;25.90;45.80;;;;;;5012398;28;20030;-76
2022/05/15 11:07:55;;;;;;;12.50;3.00;;;25.90;45.50;;;;;;5011939;28;20036;-76
2022/05/15 11:10:33;;;;;;;14.95;3.20;;;25.90;46.10;;;;;;5027571;28;20362;-75
2022/05/15 11:13:03;;;;;;;11.43;3.05;;;25.80;44.10;;;;;;5044211;28;20034;-75
2022/05/15 11:15:38;;;;;;;12.07;2.55;;;25.40;44.90;;;;;;5012361;28;20026;-77
2022/05/15 11:18:25;;;;;;;13.23;2.90;;;25.40;46.20;;;;;;5031908;28;20029;-78
2022/05/15 11:21:15;;;;;;;12.55;4.18;;;25.40;45.80;;;;;;5031707;28;20100;-76
2022/05/15 11:23:55;;;;;;;14.07;3.97;;;25.30;45.80;;;;;;5013649;28;20410;-77
2022/05/15 11:26:31;;;;;;;15.15;3.40;;;25.20;46.10;;;;;;5030266;28;20032;-77
2022/05/15 11:29:04;;;;;;;16.27;3.40;;;25.30;46.30;;;;;;5031540;28;20471;-76
2022/05/15 11:31:34;;;;;;;16.75;3.60;;;25.20;46.20;;;;;;5031395;28;20352;-77
2022/05/15 11:34:03;;;;;;;13.98;3.25;;;25.20;46.20;;;;;;5031615;28;20038;-87
2022/05/15 11:36:39;;;;;;;11.50;2.67;;;25.20;46.00;;;;;;5031941;28;20101;-77
2022/05/15 11:39:22;;;;;;;15.00;3.50;;;25.50;45.60;;;;;;5031436;28;20037;-75
2022/05/15 11:44:37;;;;;;;10.93;3.08;;;25.10;44.80;;;;;;5031481;28;20045;-77
2022/05/15 11:47:21;;;;;;;12.20;3.42;;;25.10;45.70;;;;;;5031396;28;20440;-79
2022/05/15 11:50:14;;;;;;;12.73;3.08;;;25.20;44.80;;;;;;5031659;28;20060;-83
2022/05/15 11:53:04;;;;;;;9.00;2.95;;;25.10;45.50;;;;;;5032504;28;20108;-80
2022/05/15 11:55:36;;;;;;;11.82;3.05;;;25.30;45.60;;;;;;5035737;28;20036;-80
2022/05/15 11:58:33;;;;;;;13.32;3.65;;;25.20;45.60;;;;;;5034265;28;20025;-79
2022/05/15 12:01:13;;;;;;;14.43;3.10;;;24.90;45.00;;;;;;5014566;28;20051;-78
2022/05/15 12:03:38;;;;;;;12.93;2.90;;;24.90;46.10;;;;;;5050983;28;20125;-79
2022/05/15 12:06:13;;;;;;;10.35;3.05;;;25.10;45.60;;;;;;5035610;28;20518;-81
2022/05/15 12:08:41;;;;;;;13.13;5.13;;;24.80;45.50;;;;;;5035516;28;20087;-80
2022/05/15 12:11:32;;;;;;;33.05;16.65;;;24.70;45.90;;;;;;5035273;28;20482;-75
2022/05/15 12:14:00;;;;;;;13.43;3.13;;;24.90;45.90;;;;;;5035160;28;20048;-78
2022/05/15 12:16:33;;;;;;;17.35;4.30;;;25.10;45.70;;;;;;5034725;28;20049;-77
2022/05/15 12:19:03;;;;;;;12.05;2.78;;;25.00;45.20;;;;;;5034971;28;20037;-78
2022/05/15 12:21:35;;;;;;;10.18;2.88;;;24.90;45.50;;;;;;5035365;28;20434;-76
2022/05/15 12:26:59;;;;;;;14.50;2.90;;;24.70;45.50;;;;;;5034782;28;20032;-77
2022/05/15 12:30:03;;;;;;;13.00;2.75;;;24.60;45.50;;;;;;5035202;28;20374;-75
2022/05/15 12:32:36;;;;;;;12.32;2.85;;;24.50;45.50;;;;;;5011647;28;20026;-76
2022/05/15 12:35:06;;;;;;;13.27;3.00;;;24.60;45.60;;;;;;5034355;28;20029;-77
2022/05/15 12:37:44;;;;;;;14.05;2.95;;;24.50;45.70;;;;;;5034436;28;20025;-78
2022/05/15 12:40:11;;;;;;;12.80;3.10;;;24.60;45.50;;;;;;5034717;28;20045;-78
2022/05/15 12:42:40;;;;;;;9.50;2.65;;;24.40;45.20;;;;;;5034457;28;20021;-76
2022/05/15 12:45:13;;;;;;;14.13;2.70;;;24.40;44.80;;;;;;5035059;28;20026;-79
2022/05/15 12:47:40;;;;;;;10.90;3.03;;;24.30;44.70;;;;;;5033498;28;20029;-80
2022/05/15 12:50:17;;;;;;;13.43;2.78;;;24.20;44.80;;;;;;5034277;28;20030;-78
2022/05/15 12:52:44;;;;;;;7.53;2.10;;;24.30;45.00;;;;;;5033165;28;20030;-79
2022/05/15 12:55:23;;;;;;;10.85;2.22;;;24.30;44.60;;;;;;5034396;28;20049;-79
2022/05/15 12:57:51;;;;;;;12.00;3.53;;;24.20;44.50;;;;;;5049744;28;20029;-77
2022/05/15 13:00:20;;;;;;;9.15;3.22;;;24.30;45.20;;;;;;5034684;28;20350;-86
2022/05/15 13:02:47;;;;;;;15.57;8.35;;;24.40;45.90;;;;;;5035051;28;20360;-81
2022/05/15 13:05:29;;;;;;;12.43;4.03;;;24.40;45.80;;;;;;5016070;28;20033;-81
2022/05/15 13:07:57;;;;;;;12.75;3.38;;;24.30;46.10;;;;;;5035738;28;20423;-82
2022/05/15 13:10:24;;;;;;;;;;;24.30;45.70;;;;;;5035899;28;20050;-90
2022/05/15 13:12:55;;;;;;;13.90;2.83;;;24.30;47.10;;;;;;5018385;28;19913;-89
2022/05/15 13:15:25;;;;;;;7.65;2.22;;;24.20;45.80;;;;;;5052001;28;20274;-88
2022/05/15 13:17:56;;;;;;;16.48;3.20;;;24.20;45.80;;;;;;5050500;28;20041;-82
2022/05/15 13:20:24;;;;;;;18.25;3.95;;;24.30;46.20;;;;;;5049779;28;20099;-84
2022/05/15 13:22:52;;;;;;;12.45;2.65;;;24.20;46.40;;;;;;5035820;28;20106;-88
2022/05/15 13:25:27;;;;;;;12.40;2.80;;;24.30;46.30;;;;;;5034733;28;20119;-83